sensor_id;sensor_type;location;lat;lon;timestamp;pressure;altitude;pressure_sealevel;temperature;humidity
68199;BME280;55021;51.554;17.044;2023-01-28T00:11:54;101477.09;;;0.40;85.91
68199;BME280;55021;51.554;17.044;2023-01-28T00:26:57;101473.13;;;0.28;85.29
68199;BME280;55021;51.554;17.044;2023-01-28T00:41:59;101474.25;;;0.23;84.96
68199;BME280;55021;51.554;17.044;2023-01-28T00:57:02;101466.97;;;0.06;84.81
68199;BME280;55021;51.554;17.044;2023-01-28T01:12:05;101477.81;;;-0.20;85.47
68199;BME280;55021;51.554;17.044;2023-01-28T01:27:07;101473.28;;;0.04;83.90
68199;BME280;55021;51.554;17.044;2023-01-28T01:42:12;101480.22;;;0.29;82.78
68199;BME280;55021;51.554;17.044;2023-01-28T01:57:21;101488.56;;;0.20;82.54
68199;BME280;55021;51.554;17.044;2023-01-28T02:12:27;101491.13;;;0.02;83.10
68199;BME280;55021;51.554;17.044;2023-01-28T02:27:36;101461.69;;;0.26;81.48
68199;BME280;55021;51.554;17.044;2023-01-28T02:42:40;101485.72;;;0.85;80.05
68199;BME280;55021;51.554;17.044;2023-01-28T02:57:50;101478.97;;;0.38;81.87
68199;BME280;55021;51.554;17.044;2023-01-28T03:12:56;101490.56;;;0.15;81.42
68199;BME280;55021;51.554;17.044;2023-01-28T03:28:02;101491.63;;;0.73;80.14
68199;BME280;55021;51.554;17.044;2023-01-28T03:43:05;101498.88;;;0.70;79.60
68199;BME280;55021;51.554;17.044;2023-01-28T03:58:08;101504.78;;;0.56;80.33
68199;BME280;55021;51.554;17.044;2023-01-28T04:13:10;101519.47;;;0.45;80.65
68199;BME280;55021;51.554;17.044;2023-01-28T04:28:13;101530.59;;;0.12;81.62
68199;BME280;55021;51.554;17.044;2023-01-28T04:43:15;101523.75;;;0.49;80.67
68199;BME280;55021;51.554;17.044;2023-01-28T04:58:18;101528.66;;;0.58;80.28
68199;BME280;55021;51.554;17.044;2023-01-28T05:13:21;101561.47;;;0.38;80.54
68199;BME280;55021;51.554;17.044;2023-01-28T05:28:23;101556.53;;;0.06;81.71
68199;BME280;55021;51.554;17.044;2023-01-28T05:43:25;101556.31;;;0.75;79.63
68199;BME280;55021;51.554;17.044;2023-01-28T05:58:27;101556.25;;;0.57;80.89
68199;BME280;55021;51.554;17.044;2023-01-28T06:13:30;101573.34;;;0.71;80.35
68199;BME280;55021;51.554;17.044;2023-01-28T06:28:32;101587.88;;;0.43;81.12
68199;BME280;55021;51.554;17.044;2023-01-28T06:43:35;101613.41;;;0.03;81.92
68199;BME280;55021;51.554;17.044;2023-01-28T06:58:37;101600.84;;;0.30;82.05
68199;BME280;55021;51.554;17.044;2023-01-28T07:13:39;101635.84;;;0.41;82.58
68199;BME280;55021;51.554;17.044;2023-01-28T07:28:42;101644.78;;;-0.30;83.88
68199;BME280;55021;51.554;17.044;2023-01-28T07:43:44;101647.41;;;-0.05;82.70
68199;BME280;55021;51.554;17.044;2023-01-28T07:58:49;101655.16;;;0.01;81.40
68199;BME280;55021;51.554;17.044;2023-01-28T08:13:52;101650.56;;;-0.42;82.77
68199;BME280;55021;51.554;17.044;2023-01-28T08:28:54;101648.28;;;-0.27;79.97
68199;BME280;55021;51.554;17.044;2023-01-28T08:43:56;101674.25;;;0.12;77.90
68199;BME280;55021;51.554;17.044;2023-01-28T08:58:59;101684.00;;;0.35;76.40
68199;BME280;55021;51.554;17.044;2023-01-28T09:14:01;101668.91;;;-0.11;77.51
68199;BME280;55021;51.554;17.044;2023-01-28T09:29:03;101696.81;;;0.02;76.31
68199;BME280;55021;51.554;17.044;2023-01-28T09:44:20;101699.03;;;0.36;74.95
68199;BME280;55021;51.554;17.044;2023-01-28T09:59:25;101707.97;;;0.12;74.45
68199;BME280;55021;51.554;17.044;2023-01-28T10:14:39;101687.41;;;0.60;71.64
68199;BME280;55021;51.554;17.044;2023-01-28T10:29:46;101694.97;;;1.34;71.11
68199;BME280;55021;51.554;17.044;2023-01-28T10:44:50;101691.91;;;0.60;72.29
68199;BME280;55021;51.554;17.044;2023-01-28T10:59:53;101689.31;;;1.22;69.61
68199;BME280;55021;51.554;17.044;2023-01-28T11:14:57;101702.72;;;0.55;71.33
68199;BME280;55021;51.554;17.044;2023-01-28T11:30:01;101677.41;;;0.45;70.30
68199;BME280;55021;51.554;17.044;2023-01-28T11:45:11;101680.44;;;0.79;68.89
68199;BME280;55021;51.554;17.044;2023-01-28T12:16:06;101655.00;;;0.27;68.30
68199;BME280;55021;51.554;17.044;2023-01-28T12:31:33;101680.41;;;0.36;67.04
68199;BME280;55021;51.554;17.044;2023-01-28T12:46:44;101671.44;;;0.60;68.57
68199;BME280;55021;51.554;17.044;2023-01-28T13:01:51;101673.84;;;0.45;69.12
68199;BME280;55021;51.554;17.044;2023-01-28T13:16:56;101658.31;;;0.56;67.70
68199;BME280;55021;51.554;17.044;2023-01-28T13:32:00;101683.91;;;0.15;68.20
68199;BME280;55021;51.554;17.044;2023-01-28T13:47:29;101687.59;;;0.34;67.33
68199;BME280;55021;51.554;17.044;2023-01-28T14:17:57;101708.50;;;0.21;66.99
68199;BME280;55021;51.554;17.044;2023-01-28T14:33:01;101724.09;;;0.07;68.67
68199;BME280;55021;51.554;17.044;2023-01-28T14:48:24;101714.97;;;0.38;67.94
68199;BME280;55021;51.554;17.044;2023-01-28T15:03:31;101723.16;;;0.08;66.08
68199;BME280;55021;51.554;17.044;2023-01-28T15:18:36;101725.59;;;-0.09;67.67
68199;BME280;55021;51.554;17.044;2023-01-28T15:33:41;101742.44;;;-0.33;66.73
68199;BME280;55021;51.554;17.044;2023-01-28T15:48:46;101731.91;;;-0.11;66.74
68199;BME280;55021;51.554;17.044;2023-01-28T16:04:01;101730.22;;;0.56;62.68
68199;BME280;55021;51.554;17.044;2023-01-28T16:19:06;101731.44;;;-0.24;64.64
68199;BME280;55021;51.554;17.044;2023-01-28T16:34:09;101712.22;;;1.26;60.86
68199;BME280;55021;51.554;17.044;2023-01-28T16:49:12;101703.41;;;0.82;61.68
68199;BME280;55021;51.554;17.044;2023-01-28T17:04:15;101707.09;;;-0.12;65.57
68199;BME280;55021;51.554;17.044;2023-01-28T17:19:17;101720.69;;;0.94;62.02
68199;BME280;55021;51.554;17.044;2023-01-28T17:34:20;101748.72;;;0.36;63.25
68199;BME280;55021;51.554;17.044;2023-01-28T17:49:22;101778.69;;;-0.83;65.04
68199;BME280;55021;51.554;17.044;2023-01-28T18:04:25;101762.00;;;-0.11;62.67
68199;BME280;55021;51.554;17.044;2023-01-28T18:19:29;101791.78;;;0.23;62.08
68199;BME280;55021;51.554;17.044;2023-01-28T18:34:32;101802.97;;;0.08;63.50
68199;BME280;55021;51.554;17.044;2023-01-28T18:49:34;101810.75;;;-0.10;62.63
68199;BME280;55021;51.554;17.044;2023-01-28T19:04:36;101769.81;;;0.18;61.33
68199;BME280;55021;51.554;17.044;2023-01-28T19:19:39;101815.06;;;0.42;63.39
68199;BME280;55021;51.554;17.044;2023-01-28T19:34:41;101811.59;;;0.63;63.31
68199;BME280;55021;51.554;17.044;2023-01-28T19:49:44;101817.13;;;0.34;65.22
68199;BME280;55021;51.554;17.044;2023-01-28T20:04:47;101813.09;;;1.36;61.80
68199;BME280;55021;51.554;17.044;2023-01-28T20:19:49;101789.13;;;1.36;62.08
68199;BME280;55021;51.554;17.044;2023-01-28T20:34:51;101803.16;;;1.40;63.52
68199;BME280;55021;51.554;17.044;2023-01-28T20:49:54;101802.88;;;1.68;63.96
68199;BME280;55021;51.554;17.044;2023-01-28T21:04:56;101810.16;;;1.84;66.24
68199;BME280;55021;51.554;17.044;2023-01-28T21:19:59;101800.88;;;1.53;64.68
68199;BME280;55021;51.554;17.044;2023-01-28T21:35:01;101799.78;;;1.57;65.36
68199;BME280;55021;51.554;17.044;2023-01-28T21:50:04;101797.94;;;1.59;64.02
68199;BME280;55021;51.554;17.044;2023-01-28T22:05:07;101782.66;;;1.42;64.69
68199;BME280;55021;51.554;17.044;2023-01-28T22:20:10;101782.38;;;1.48;64.29
68199;BME280;55021;51.554;17.044;2023-01-28T22:35:13;101787.53;;;1.53;64.37
68199;BME280;55021;51.554;17.044;2023-01-28T22:50:16;101806.28;;;1.29;64.89
68199;BME280;55021;51.554;17.044;2023-01-28T23:05:18;101787.97;;;0.54;68.03
68199;BME280;55021;51.554;17.044;2023-01-28T23:20:21;101793.31;;;1.20;66.56
68199;BME280;55021;51.554;17.044;2023-01-28T23:35:23;101762.31;;;0.96;66.96
68199;BME280;55021;51.554;17.044;2023-01-28T23:50:27;101775.53;;;0.99;67.25
